createdAt,value
2024-03-03T00:02:14.014Z,92.94
2024-03-03T00:04:42.473Z,92.55
2024-03-03T00:07:10.840Z,92.69
2024-03-03T00:09:39.291Z,92.46
2024-03-03T00:12:07.885Z,92.69
2024-03-03T00:14:36.524Z,92.34
2024-03-03T00:17:05.132Z,92.04
2024-03-03T00:19:34.960Z,92.25
2024-03-03T00:22:03.706Z,92.05
2024-03-03T00:24:32.092Z,92.00
2024-03-03T00:27:01.139Z,91.32
2024-03-03T00:29:29.410Z,91.67
2024-03-03T00:31:58.290Z,91.18
2024-03-03T00:34:26.752Z,91.48
2024-03-03T00:36:56.577Z,91.25
2024-03-03T00:39:24.962Z,91.07
2024-03-03T00:41:53.765Z,90.50
2024-03-03T00:44:22.100Z,91.05
2024-03-03T00:46:50.639Z,90.51
2024-03-03T00:49:19.026Z,90.72
2024-03-03T00:51:47.453Z,90.76
2024-03-03T00:54:17.239Z,90.49
2024-03-03T00:56:45.687Z,90.63
2024-03-03T00:59:17.433Z,90.49
2024-03-03T01:01:45.727Z,90.13
2024-03-03T01:04:15.397Z,90.56
2024-03-03T01:06:44.182Z,90.18
2024-03-03T01:09:12.576Z,89.82
2024-03-03T01:11:42.770Z,89.92
2024-03-03T01:14:11.204Z,89.70
2024-03-03T01:16:40.007Z,89.91
2024-03-03T01:19:08.403Z,89.78
2024-03-03T01:21:40.679Z,89.68
2024-03-03T01:24:09.189Z,89.81
2024-03-03T01:26:38.948Z,89.63
2024-03-03T01:29:08.883Z,89.40
2024-03-03T01:31:37.332Z,89.33
2024-03-03T01:34:05.654Z,88.97
2024-03-03T01:36:34.155Z,88.86
2024-03-03T01:39:03.105Z,88.97
2024-03-03T01:41:31.624Z,88.88
2024-03-03T01:44:00.035Z,88.78
2024-03-03T01:46:30.184Z,88.16
2024-03-03T01:48:59.028Z,88.19
2024-03-03T01:51:27.887Z,88.19
2024-03-03T01:53:56.236Z,87.36
2024-03-03T01:56:26.082Z,87.43
2024-03-03T01:58:55.026Z,87.09
2024-03-03T02:01:23.771Z,87.17
2024-03-03T02:03:53.056Z,87.35
2024-03-03T02:06:23.153Z,87.08
2024-03-03T02:08:51.629Z,87.34
2024-03-03T02:11:20.049Z,87.35
2024-03-03T02:13:48.546Z,87.09
2024-03-03T02:16:17.181Z,87.33
2024-03-03T02:18:45.810Z,87.35
2024-03-03T02:21:15.761Z,87.33
2024-03-03T02:23:45.603Z,87.16
2024-03-03T02:26:14.206Z,87.28
2024-03-03T02:28:42.813Z,87.61
2024-03-03T02:31:11.652Z,87.08
2024-03-03T02:33:39.982Z,87.21
2024-03-03T02:36:10.327Z,87.11
2024-03-03T02:38:39.526Z,87.18
2024-03-03T02:41:09.575Z,87.27
2024-03-03T02:43:38.363Z,87.66
2024-03-03T02:46:06.814Z,87.56
2024-03-03T02:48:35.218Z,87.36
2024-03-03T02:51:03.687Z,87.50
2024-03-03T02:53:31.973Z,87.37
2024-03-03T02:56:00.354Z,87.79
2024-03-03T02:58:30.310Z,87.84
2024-03-03T03:00:59.389Z,87.63
2024-03-03T03:03:27.805Z,87.52
2024-03-03T03:05:56.265Z,87.95
2024-03-03T03:08:24.690Z,87.79
2024-03-03T03:10:53.068Z,87.54
2024-03-03T03:13:22.627Z,88.12
2024-03-03T03:15:52.767Z,87.98
2024-03-03T03:18:22.051Z,87.56
2024-03-03T03:20:51.385Z,87.61
2024-03-03T03:23:19.660Z,87.59
2024-03-03T03:25:48.049Z,87.58
2024-03-03T03:28:16.486Z,87.53
2024-03-03T03:30:45.013Z,87.42
2024-03-03T03:33:14.787Z,87.65
2024-03-03T03:35:43.454Z,87.29
2024-03-03T03:38:11.812Z,87.37
2024-03-03T03:40:40.272Z,87.01
2024-03-03T03:43:08.711Z,87.06
2024-03-03T03:45:37.230Z,86.97
2024-03-03T03:48:05.940Z,86.95
2024-03-03T03:50:35.756Z,86.90
2024-03-03T03:53:04.765Z,86.60
2024-03-03T03:55:33.291Z,86.65
2024-03-03T03:58:01.683Z,86.68
2024-03-03T04:00:30.047Z,86.52
2024-03-03T04:02:58.351Z,86.82
2024-03-03T04:05:26.779Z,87.00
2024-03-03T04:07:56.562Z,86.80
2024-03-03T04:10:25.349Z,86.71
2024-03-03T04:12:53.808Z,86.32
2024-03-03T04:15:22.258Z,86.62
2024-03-03T04:17:50.700Z,86.55
2024-03-03T04:20:19.152Z,86.67
2024-03-03T04:22:47.535Z,86.60
2024-03-03T04:25:18.460Z,86.75
2024-03-03T04:27:46.964Z,86.53
2024-03-03T04:30:15.361Z,86.61
2024-03-03T04:32:43.979Z,86.53
2024-03-03T04:35:12.333Z,86.68
2024-03-03T04:37:40.732Z,86.24
2024-03-03T04:40:10.446Z,86.30
2024-03-03T04:42:40.376Z,86.37
2024-03-03T04:45:09.062Z,86.14
2024-03-03T04:47:37.599Z,85.89
2024-03-03T04:50:06.741Z,86.10
2024-03-03T04:52:35.161Z,86.18
2024-03-03T04:55:04.235Z,85.93
2024-03-03T04:57:32.692Z,86.17
2024-03-03T05:00:02.442Z,86.21
2024-03-03T05:02:31.384Z,85.97
2024-03-03T05:04:59.715Z,85.92
2024-03-03T05:07:29.066Z,85.70
2024-03-03T05:09:57.478Z,85.69
2024-03-03T05:12:26.121Z,85.99
2024-03-03T05:14:54.648Z,85.55
2024-03-03T05:17:24.590Z,85.74
2024-03-03T05:19:53.020Z,85.76
2024-03-03T05:22:21.341Z,85.56
2024-03-03T05:24:49.857Z,85.53
2024-03-03T05:27:19.063Z,85.46
2024-03-03T05:29:47.515Z,85.36
2024-03-03T05:32:15.906Z,84.85
2024-03-03T05:34:45.777Z,84.38
2024-03-03T05:37:14.283Z,84.02
2024-03-03T05:39:43.007Z,83.41
2024-03-03T05:42:12.415Z,82.61
2024-03-03T05:44:40.710Z,82.02
2024-03-03T05:47:10.820Z,81.46
2024-03-03T05:49:38.296Z,81.35
2024-03-03T05:52:09.045Z,81.31
2024-03-03T05:54:37.561Z,81.22
2024-03-03T05:57:06.391Z,81.05
2024-03-03T05:59:34.941Z,81.12
2024-03-03T06:02:03.415Z,81.02
2024-03-03T06:04:37.026Z,80.93
2024-03-03T06:07:06.213Z,81.09
2024-03-03T06:09:36.705Z,80.95
2024-03-03T06:12:07.256Z,80.98
2024-03-03T06:14:36.526Z,81.05
2024-03-03T06:17:05.006Z,80.89
2024-03-03T06:19:33.353Z,80.73
2024-03-03T06:22:02.007Z,80.84
2024-03-03T06:24:33.237Z,80.95
2024-03-03T06:27:03.444Z,81.00
2024-03-03T06:29:32.031Z,81.24
2024-03-03T06:32:01.563Z,81.14
2024-03-03T06:34:30.076Z,80.56
2024-03-03T06:36:58.445Z,80.58
2024-03-03T06:39:26.802Z,80.13
2024-03-03T06:41:55.136Z,79.92
2024-03-03T06:44:24.954Z,80.46
2024-03-03T06:46:53.284Z,80.21
2024-03-03T06:49:21.843Z,80.01
2024-03-03T06:51:50.316Z,80.07
2024-03-03T06:54:18.731Z,79.81
2024-03-03T06:56:48.171Z,79.55
2024-03-03T06:59:16.893Z,79.69
2024-03-03T07:01:46.709Z,79.71
2024-03-03T07:04:25.760Z,79.49
2024-03-03T07:06:55.394Z,79.76
2024-03-03T07:09:24.949Z,79.17
2024-03-03T07:11:53.658Z,79.17
2024-03-03T07:14:22.236Z,79.30
2024-03-03T07:16:52.902Z,79.23
2024-03-03T07:19:21.313Z,79.45
2024-03-03T07:21:49.963Z,79.28
2024-03-03T07:24:18.534Z,79.31
2024-03-03T07:26:46.932Z,79.35
2024-03-03T07:29:15.285Z,79.28
2024-03-03T07:31:43.770Z,79.02
2024-03-03T07:34:13.578Z,78.93
2024-03-03T07:36:42.558Z,78.68
2024-03-03T07:39:11.033Z,78.42
2024-03-03T07:41:39.481Z,78.40
2024-03-03T07:44:08.063Z,78.24
2024-03-03T07:46:36.866Z,78.37
2024-03-03T07:49:05.227Z,78.02
2024-03-03T07:51:36.011Z,77.85
2024-03-03T07:54:04.470Z,77.86
2024-03-03T07:56:32.773Z,77.62
2024-03-03T07:59:06.973Z,77.60
2024-03-03T08:01:37.015Z,77.01
2024-03-03T08:04:06.538Z,76.97
2024-03-03T08:06:36.404Z,76.95
2024-03-03T08:09:05.052Z,76.82
2024-03-03T08:11:35.058Z,76.42
2024-03-03T08:14:04.648Z,76.50
2024-03-03T08:16:34.698Z,76.85
2024-03-03T08:19:03.211Z,75.85
2024-03-03T08:21:31.868Z,75.72
2024-03-03T08:24:02.097Z,75.70
2024-03-03T08:26:30.418Z,75.24
2024-03-03T08:28:58.823Z,74.90
2024-03-03T08:31:27.205Z,75.05
2024-03-03T08:33:55.706Z,75.18
2024-03-03T08:36:24.296Z,75.79
2024-03-03T08:38:52.743Z,75.84
2024-03-03T08:41:22.457Z,75.71
2024-03-03T08:43:50.800Z,75.36
2024-03-03T08:46:19.447Z,74.47
2024-03-03T08:48:48.050Z,74.52
2024-03-03T08:51:16.494Z,74.60
2024-03-03T08:53:45.273Z,73.99
2024-03-03T08:56:13.584Z,73.45
2024-03-03T08:58:44.115Z,73.74
2024-03-03T09:01:16.036Z,73.13
2024-03-03T09:03:44.901Z,72.49
2024-03-03T09:06:13.296Z,71.04
2024-03-03T09:08:43.413Z,70.38
2024-03-03T09:11:13.404Z,70.80
2024-03-03T09:13:41.856Z,70.62
2024-03-03T09:16:13.243Z,70.75
2024-03-03T09:18:41.878Z,70.94
2024-03-03T09:21:10.769Z,70.39
2024-03-03T09:23:41.113Z,70.88
2024-03-03T09:26:09.529Z,71.18
2024-03-03T09:28:38.278Z,71.15
2024-03-03T09:31:06.911Z,70.86
2024-03-03T09:33:36.817Z,70.47
2024-03-03T09:36:07.680Z,68.34
2024-03-03T09:38:36.045Z,68.52
2024-03-03T09:41:04.486Z,68.12
2024-03-03T09:43:38.632Z,67.00
2024-03-03T09:46:08.920Z,67.34
2024-03-03T09:48:44.016Z,67.78
2024-03-03T09:51:14.132Z,67.54
2024-03-03T09:53:43.491Z,67.78
2024-03-03T09:56:12.556Z,67.87
2024-03-03T09:58:40.902Z,67.12
2024-03-03T10:01:11.611Z,67.39
2024-03-03T10:03:42.333Z,66.38
2024-03-03T10:06:11.941Z,66.79
2024-03-03T10:08:43.356Z,67.30
2024-03-03T10:11:17.713Z,65.77
2024-03-03T10:13:47.252Z,65.88
2024-03-03T10:16:16.669Z,66.75
2024-03-03T10:18:46.505Z,67.07
2024-03-03T10:21:15.829Z,67.12
2024-03-03T10:23:44.262Z,67.31
2024-03-03T10:26:12.613Z,65.68
2024-03-03T10:28:41.155Z,64.84
2024-03-03T10:31:13.128Z,64.86
2024-03-03T10:33:58.658Z,64.03
2024-03-03T10:36:27.154Z,64.81
2024-03-03T10:38:55.649Z,63.74
2024-03-03T10:41:24.092Z,63.97
2024-03-03T10:43:52.660Z,64.16
2024-03-03T10:46:21.817Z,64.13
2024-03-03T10:48:50.622Z,63.02
2024-03-03T10:51:21.641Z,63.93
2024-03-03T10:53:52.308Z,63.90
2024-03-03T10:56:21.166Z,63.28
2024-03-03T10:58:50.680Z,62.98
2024-03-03T11:01:19.593Z,62.72
2024-03-03T11:03:48.657Z,62.86
2024-03-03T11:06:17.777Z,63.33
2024-03-03T11:08:51.527Z,62.61
2024-03-03T11:11:23.031Z,62.03
2024-03-03T11:13:54.684Z,62.42
2024-03-03T11:16:26.965Z,62.04
2024-03-03T11:18:56.668Z,62.08
2024-03-03T11:21:29.330Z,62.14
2024-03-03T11:24:00.735Z,62.81
2024-03-03T11:26:33.217Z,61.44
2024-03-03T11:29:02.039Z,61.72
2024-03-03T11:31:30.695Z,61.76
2024-03-03T11:33:59.879Z,61.99
2024-03-03T11:36:28.806Z,61.85
2024-03-03T11:39:00.177Z,62.36
2024-03-03T11:41:30.677Z,61.65
2024-03-03T11:43:59.087Z,62.40
2024-03-03T11:46:46.553Z,60.78
2024-03-03T11:49:15.014Z,58.52
2024-03-03T11:51:44.387Z,59.13
2024-03-03T11:54:15.194Z,59.57
2024-03-03T11:56:46.979Z,59.85
2024-03-03T11:59:16.598Z,59.09
2024-03-03T12:01:48.371Z,59.31
2024-03-03T12:04:17.477Z,60.75
2024-03-03T12:06:47.558Z,60.53
2024-03-03T12:09:22.283Z,60.31
2024-03-03T12:11:51.167Z,60.09
2024-03-03T12:14:19.497Z,60.12
2024-03-03T12:16:47.931Z,60.89
2024-03-03T12:19:17.269Z,60.74
2024-03-03T12:21:46.866Z,60.38
2024-03-03T12:24:17.748Z,60.33
2024-03-03T12:26:46.194Z,61.04
2024-03-03T12:29:14.594Z,60.44
2024-03-03T12:31:43.064Z,60.68
2024-03-03T12:34:11.493Z,61.15
2024-03-03T12:36:40.082Z,61.20
2024-03-03T12:39:08.922Z,62.31
2024-03-03T12:41:39.099Z,60.42
2024-03-03T12:44:07.566Z,60.56
2024-03-03T12:46:41.429Z,61.07
2024-03-03T12:49:10.784Z,60.74
2024-03-03T12:51:39.706Z,61.08
2024-03-03T12:54:08.210Z,61.06
2024-03-03T12:56:36.512Z,60.92
2024-03-03T12:59:06.447Z,60.15
2024-03-03T13:01:36.068Z,60.94
2024-03-03T13:04:04.491Z,60.55
2024-03-03T13:06:32.835Z,60.32
2024-03-03T13:09:02.227Z,61.35
2024-03-03T13:11:30.678Z,61.00
2024-03-03T13:13:59.170Z,60.75
2024-03-03T13:16:30.580Z,61.10
2024-03-03T13:19:00.682Z,60.87
2024-03-03T13:21:29.510Z,60.51
2024-03-03T13:24:13.298Z,61.04
2024-03-03T13:26:42.606Z,60.32
2024-03-03T13:29:12.006Z,59.92
2024-03-03T13:31:42.099Z,60.43
2024-03-03T13:34:10.560Z,60.50
2024-03-03T13:36:39.041Z,60.87
2024-03-03T13:39:12.006Z,61.95
2024-03-03T13:41:40.888Z,61.08
2024-03-03T13:44:09.244Z,61.09
2024-03-03T13:46:37.674Z,61.20
2024-03-03T13:49:07.689Z,61.44
2024-03-03T13:51:36.048Z,61.19
2024-03-03T13:54:05.485Z,61.42
2024-03-03T13:56:34.024Z,61.04
2024-03-03T13:59:02.486Z,61.35
2024-03-03T14:01:30.933Z,60.29
2024-03-03T14:03:59.478Z,59.99
2024-03-03T14:06:29.304Z,59.63
2024-03-03T14:08:58.257Z,59.20
2024-03-03T14:11:26.943Z,59.14
2024-03-03T14:13:55.484Z,59.71
2024-03-03T14:16:23.937Z,60.27
2024-03-03T14:18:58.597Z,60.37
2024-03-03T14:21:29.134Z,60.41
2024-03-03T14:23:58.009Z,59.75
2024-03-03T14:26:26.315Z,59.82
2024-03-03T14:28:55.746Z,60.01
2024-03-03T14:31:24.408Z,60.44
2024-03-03T14:33:56.249Z,60.97
2024-03-03T14:36:24.979Z,61.52
2024-03-03T14:38:54.950Z,61.72
2024-03-03T14:41:23.980Z,62.29
2024-03-03T14:43:52.179Z,62.31
2024-03-03T14:46:20.716Z,62.20
2024-03-03T14:48:49.182Z,62.82
2024-03-03T14:51:17.921Z,62.79
2024-03-03T14:53:46.611Z,63.22
2024-03-03T14:56:16.896Z,62.66
2024-03-03T14:58:45.208Z,62.64
2024-03-03T15:01:13.625Z,62.65
2024-03-03T15:03:41.943Z,63.02
2024-03-03T15:06:10.361Z,63.31
2024-03-03T15:08:39.879Z,62.65
2024-03-03T15:11:08.624Z,62.91
2024-03-03T15:13:38.360Z,63.16
2024-03-03T15:16:07.328Z,63.38
2024-03-03T15:18:38.244Z,64.03
2024-03-03T15:21:07.107Z,64.24
2024-03-03T15:23:37.552Z,64.23
2024-03-03T15:26:08.538Z,64.16
2024-03-03T15:28:36.825Z,64.31
2024-03-03T15:31:06.695Z,64.60
2024-03-03T15:33:37.315Z,64.64
2024-03-03T15:36:06.531Z,64.44
2024-03-03T15:38:35.279Z,64.23
2024-03-03T15:41:03.538Z,64.57
2024-03-03T15:43:31.837Z,64.63
2024-03-03T15:46:00.444Z,64.90
2024-03-03T15:48:30.242Z,64.51
2024-03-03T15:50:58.885Z,64.94
2024-03-03T15:53:27.092Z,64.79
2024-03-03T15:55:58.283Z,65.11
2024-03-03T15:58:27.758Z,65.14
2024-03-03T16:00:57.258Z,65.05
2024-03-03T16:03:25.818Z,65.28
2024-03-03T16:05:55.631Z,65.28
2024-03-03T16:08:24.126Z,65.70
2024-03-03T16:10:54.864Z,65.75
2024-03-03T16:13:24.302Z,65.77
2024-03-03T16:15:52.942Z,65.94
2024-03-03T16:18:21.877Z,66.30
2024-03-03T16:20:50.448Z,66.67
2024-03-03T16:23:20.226Z,66.33
2024-03-03T16:25:48.628Z,66.31
2024-03-03T16:28:17.084Z,66.92
2024-03-03T16:30:45.617Z,66.82
2024-03-03T16:33:14.147Z,66.95
2024-03-03T16:35:45.807Z,67.05
2024-03-03T16:38:14.345Z,67.38
2024-03-03T16:40:44.370Z,67.43
2024-03-03T16:43:13.200Z,67.90
2024-03-03T16:45:41.559Z,67.45
2024-03-03T16:48:10.047Z,67.99
2024-03-03T16:50:38.486Z,68.25
2024-03-03T16:53:06.850Z,68.32
2024-03-03T16:55:35.285Z,68.51
2024-03-03T16:58:06.880Z,68.53
2024-03-03T17:00:35.402Z,68.70
2024-03-03T17:03:06.093Z,68.79
2024-03-03T17:05:35.752Z,68.60
2024-03-03T17:08:04.482Z,68.90
2024-03-03T17:10:32.975Z,69.31
2024-03-03T17:13:01.440Z,69.27
2024-03-03T17:15:31.320Z,69.32
2024-03-03T17:17:59.988Z,69.52
2024-03-03T17:20:28.471Z,69.41
2024-03-03T17:22:58.421Z,69.48
2024-03-03T17:25:26.926Z,69.59
2024-03-03T17:27:55.534Z,69.69
2024-03-03T17:30:24.049Z,69.88
2024-03-03T17:32:54.238Z,69.64
2024-03-03T17:35:27.226Z,70.06
2024-03-03T17:37:56.181Z,70.15
2024-03-03T17:40:27.812Z,70.18
2024-03-03T17:42:56.749Z,70.29
2024-03-03T17:45:26.142Z,70.46
2024-03-03T17:47:56.023Z,70.63
2024-03-03T17:50:24.466Z,70.73
2024-03-03T17:52:52.914Z,70.68
2024-03-03T17:55:21.318Z,70.58
2024-03-03T17:57:49.808Z,70.65
2024-03-03T18:00:18.399Z,70.79
2024-03-03T18:02:47.394Z,71.18
2024-03-03T18:05:17.187Z,71.10
2024-03-03T18:07:45.798Z,71.24
2024-03-03T18:10:14.451Z,71.24
2024-03-03T18:12:42.933Z,71.34
2024-03-03T18:15:11.803Z,71.48
2024-03-03T18:17:42.133Z,71.77
2024-03-03T18:20:11.687Z,71.49
2024-03-03T18:22:41.622Z,71.69
2024-03-03T18:25:10.547Z,72.03
2024-03-03T18:27:39.734Z,72.19
2024-03-03T18:30:09.817Z,72.29
2024-03-03T18:32:38.661Z,72.10
2024-03-03T18:35:09.523Z,72.15
2024-03-03T18:37:39.290Z,72.09
2024-03-03T18:40:11.939Z,72.25
2024-03-03T18:42:40.345Z,71.89
2024-03-03T18:45:09.105Z,72.42
2024-03-03T18:47:38.626Z,72.56
2024-03-03T18:50:10.933Z,72.72
2024-03-03T18:52:39.547Z,73.06
2024-03-03T18:55:10.058Z,72.82
2024-03-03T18:57:38.642Z,72.85
2024-03-03T19:00:09.312Z,72.81
2024-03-03T19:02:37.716Z,73.17
2024-03-03T19:05:08.176Z,73.11
2024-03-03T19:07:36.835Z,73.25
2024-03-03T19:10:05.810Z,73.27
2024-03-03T19:12:35.716Z,73.42
2024-03-03T19:15:04.135Z,73.46
2024-03-03T19:17:32.539Z,73.42
2024-03-03T19:20:01.314Z,73.63
2024-03-03T19:22:29.704Z,73.14
2024-03-03T19:24:59.814Z,73.49
2024-03-03T19:27:28.184Z,73.43
2024-03-03T19:29:58.347Z,73.58
2024-03-03T19:32:26.742Z,74.00
2024-03-03T19:34:55.256Z,73.78
2024-03-03T19:37:23.782Z,73.58
2024-03-03T19:39:55.574Z,73.61
2024-03-03T19:42:23.997Z,73.36
2024-03-03T19:44:52.332Z,73.22
2024-03-03T19:47:22.193Z,73.05
2024-03-03T19:49:50.596Z,72.95
2024-03-03T19:52:18.949Z,73.19
2024-03-03T19:54:47.446Z,72.12
2024-03-03T19:57:15.770Z,71.30
2024-03-03T19:59:45.214Z,71.12
2024-03-03T20:02:13.622Z,70.05
2024-03-03T20:04:43.545Z,69.14
2024-03-03T20:07:12.637Z,69.34
2024-03-03T20:09:43.017Z,69.05
2024-03-03T20:12:11.400Z,69.16
2024-03-03T20:14:40.156Z,68.86
2024-03-03T20:17:10.886Z,69.34
2024-03-03T20:19:42.499Z,69.18
2024-03-03T20:22:12.395Z,68.73
2024-03-03T20:24:41.181Z,68.56
2024-03-03T20:27:09.616Z,68.59
2024-03-03T20:29:37.976Z,68.27
2024-03-03T20:32:06.424Z,68.64
2024-03-03T20:34:34.991Z,68.61
2024-03-03T20:37:03.559Z,68.71
2024-03-03T20:39:33.354Z,69.38
2024-03-03T20:42:01.905Z,70.55
2024-03-03T20:44:30.305Z,72.39
2024-03-03T20:46:58.694Z,72.31
2024-03-03T20:49:27.477Z,71.61
2024-03-03T20:51:56.069Z,71.12
2024-03-03T20:54:24.473Z,70.65
2024-03-03T20:56:54.236Z,70.55
2024-03-03T20:59:22.928Z,70.81
2024-03-03T21:01:52.296Z,71.68
2024-03-03T21:04:20.620Z,72.39
2024-03-03T21:06:49.075Z,72.08
2024-03-03T21:09:17.437Z,72.00
2024-03-03T21:11:45.933Z,72.36
2024-03-03T21:14:15.715Z,73.21
2024-03-03T21:16:44.095Z,73.89
2024-03-03T21:19:12.445Z,75.02
2024-03-03T21:21:40.806Z,75.53
2024-03-03T21:24:09.305Z,76.40
2024-03-03T21:26:37.805Z,76.71
2024-03-03T21:29:06.154Z,76.76
2024-03-03T21:31:36.584Z,77.32
2024-03-03T21:34:06.500Z,77.46
2024-03-03T21:36:35.508Z,77.57
2024-03-03T21:39:04.189Z,78.00
2024-03-03T21:41:32.687Z,78.13
2024-03-03T21:44:01.047Z,78.40
2024-03-03T21:46:29.873Z,78.62
2024-03-03T21:48:59.780Z,79.16
2024-03-03T21:51:29.994Z,79.14
2024-03-03T21:53:58.591Z,79.12
2024-03-03T21:56:27.122Z,79.21
2024-03-03T21:58:57.047Z,79.81
2024-03-03T22:01:25.569Z,79.33
2024-03-03T22:03:54.818Z,78.66
2024-03-03T22:06:24.680Z,77.87
2024-03-03T22:08:57.655Z,76.40
2024-03-03T22:11:27.302Z,74.90
2024-03-03T22:13:56.946Z,73.70
2024-03-03T22:16:25.448Z,73.01
2024-03-03T22:18:53.875Z,73.11
2024-03-03T22:21:22.271Z,72.79
2024-03-03T22:23:51.981Z,72.44
2024-03-03T22:26:20.470Z,72.51
2024-03-03T22:28:49.620Z,72.71
2024-03-03T22:31:18.114Z,72.47
2024-03-03T22:33:46.905Z,72.87
2024-03-03T22:36:15.717Z,73.13
2024-03-03T22:38:44.088Z,73.44
2024-03-03T22:41:14.284Z,73.73
2024-03-03T22:43:42.746Z,73.65
2024-03-03T22:46:12.937Z,73.38
2024-03-03T22:48:42.042Z,72.91
2024-03-03T22:51:12.184Z,72.35
2024-03-03T22:53:40.642Z,72.25
2024-03-03T22:56:09.100Z,71.74
2024-03-03T22:58:39.034Z,71.70
2024-03-03T23:01:07.624Z,71.26
2024-03-03T23:03:36.047Z,71.33
2024-03-03T23:06:05.378Z,70.99
2024-03-03T23:08:33.733Z,70.54
2024-03-03T23:11:02.180Z,70.44
2024-03-03T23:13:30.701Z,70.29
2024-03-03T23:16:00.654Z,70.53
2024-03-03T23:18:29.106Z,70.13
2024-03-03T23:20:57.465Z,70.07
2024-03-03T23:23:26.415Z,70.05
2024-03-03T23:25:55.067Z,70.21
2024-03-03T23:28:24.619Z,70.33
2024-03-03T23:30:53.073Z,70.19
2024-03-03T23:33:22.981Z,69.79
2024-03-03T23:35:51.385Z,70.05
2024-03-03T23:38:19.883Z,70.45
2024-03-03T23:40:48.334Z,70.34
2024-03-03T23:43:16.675Z,69.98
2024-03-03T23:45:45.113Z,70.30
2024-03-03T23:48:13.471Z,70.72
2024-03-03T23:50:43.315Z,70.52
2024-03-03T23:53:11.832Z,70.31
2024-03-03T23:55:40.288Z,70.47
2024-03-03T23:58:09.092Z,70.34
